sensor_id;sensor_type;location;lat;lon;timestamp;P1;durP1;ratioP1;P2;durP2;ratioP2
60076;SDS011;45950;45.208;20.374;2023-07-02T00:00:01;8.20;;;5.05;;
60076;SDS011;45950;45.208;20.374;2023-07-02T00:02:31;11.05;;;5.75;;
60076;SDS011;45950;45.208;20.374;2023-07-02T00:05:00;12.10;;;5.10;;
60076;SDS011;45950;45.208;20.374;2023-07-02T00:07:26;7.97;;;5.22;;
60076;SDS011;45950;45.208;20.374;2023-07-02T00:09:53;6.82;;;5.45;;
60076;SDS011;45950;45.208;20.374;2023-07-02T00:12:20;7.15;;;5.28;;
60076;SDS011;45950;45.208;20.374;2023-07-02T00:14:46;9.15;;;6.18;;
60076;SDS011;45950;45.208;20.374;2023-07-02T00:17:13;7.97;;;5.38;;
60076;SDS011;45950;45.208;20.374;2023-07-02T00:19:41;7.68;;;4.78;;
60076;SDS011;45950;45.208;20.374;2023-07-02T00:22:07;9.13;;;5.40;;
60076;SDS011;45950;45.208;20.374;2023-07-02T00:24:34;7.45;;;5.28;;
60076;SDS011;45950;45.208;20.374;2023-07-02T00:27:01;7.15;;;4.78;;
60076;SDS011;45950;45.208;20.374;2023-07-02T00:29:27;7.90;;;4.65;;
60076;SDS011;45950;45.208;20.374;2023-07-02T00:31:54;7.18;;;5.38;;
60076;SDS011;45950;45.208;20.374;2023-07-02T00:34:21;11.38;;;5.93;;
60076;SDS011;45950;45.208;20.374;2023-07-02T00:36:49;8.40;;;5.22;;
60076;SDS011;45950;45.208;20.374;2023-07-02T00:39:15;12.82;;;9.88;;
60076;SDS011;45950;45.208;20.374;2023-07-02T00:41:43;10.95;;;8.20;;
60076;SDS011;45950;45.208;20.374;2023-07-02T00:44:11;10.18;;;7.00;;
60076;SDS011;45950;45.208;20.374;2023-07-02T00:46:38;7.85;;;6.03;;
60076;SDS011;45950;45.208;20.374;2023-07-02T00:49:04;8.00;;;5.60;;
60076;SDS011;45950;45.208;20.374;2023-07-02T00:51:31;7.55;;;5.00;;
60076;SDS011;45950;45.208;20.374;2023-07-02T00:53:59;7.05;;;5.22;;
60076;SDS011;45950;45.208;20.374;2023-07-02T00:56:26;7.13;;;4.75;;
60076;SDS011;45950;45.208;20.374;2023-07-02T00:58:53;7.57;;;5.30;;
60076;SDS011;45950;45.208;20.374;2023-07-02T01:01:24;8.70;;;5.63;;
60076;SDS011;45950;45.208;20.374;2023-07-02T01:03:53;8.98;;;5.93;;
60076;SDS011;45950;45.208;20.374;2023-07-02T01:06:22;9.73;;;5.78;;
60076;SDS011;45950;45.208;20.374;2023-07-02T01:08:51;9.88;;;5.70;;
60076;SDS011;45950;45.208;20.374;2023-07-02T01:11:19;8.52;;;5.50;;
60076;SDS011;45950;45.208;20.374;2023-07-02T01:16:50;9.55;;;5.50;;
60076;SDS011;45950;45.208;20.374;2023-07-02T01:19:18;7.25;;;5.13;;
60076;SDS011;45950;45.208;20.374;2023-07-02T01:21:47;9.20;;;6.50;;
60076;SDS011;45950;45.208;20.374;2023-07-02T01:27:16;8.80;;;6.32;;
60076;SDS011;45950;45.208;20.374;2023-07-02T01:29:43;6.85;;;4.97;;
60076;SDS011;45950;45.208;20.374;2023-07-02T01:32:11;9.23;;;6.25;;
60076;SDS011;45950;45.208;20.374;2023-07-02T01:34:38;10.40;;;6.03;;
60076;SDS011;45950;45.208;20.374;2023-07-02T01:37:06;9.27;;;5.43;;
60076;SDS011;45950;45.208;20.374;2023-07-02T01:39:34;5.75;;;4.47;;
60076;SDS011;45950;45.208;20.374;2023-07-02T01:42:08;6.85;;;4.95;;
60076;SDS011;45950;45.208;20.374;2023-07-02T01:44:35;9.73;;;6.40;;
60076;SDS011;45950;45.208;20.374;2023-07-02T01:47:02;8.32;;;5.32;;
60076;SDS011;45950;45.208;20.374;2023-07-02T01:49:29;12.30;;;6.30;;
60076;SDS011;45950;45.208;20.374;2023-07-02T01:51:56;10.95;;;7.25;;
60076;SDS011;45950;45.208;20.374;2023-07-02T01:54:25;11.50;;;5.97;;
60076;SDS011;45950;45.208;20.374;2023-07-02T01:56:52;11.70;;;6.55;;
60076;SDS011;45950;45.208;20.374;2023-07-02T01:59:19;10.00;;;6.15;;
60076;SDS011;45950;45.208;20.374;2023-07-02T02:01:46;8.85;;;6.38;;
60076;SDS011;45950;45.208;20.374;2023-07-02T02:04:12;11.70;;;6.65;;
60076;SDS011;45950;45.208;20.374;2023-07-02T02:06:39;9.05;;;6.40;;
60076;SDS011;45950;45.208;20.374;2023-07-02T02:09:06;10.43;;;6.88;;
60076;SDS011;45950;45.208;20.374;2023-07-02T02:11:37;9.05;;;6.20;;
60076;SDS011;45950;45.208;20.374;2023-07-02T02:14:04;8.93;;;6.32;;
60076;SDS011;45950;45.208;20.374;2023-07-02T02:16:31;9.05;;;6.50;;
60076;SDS011;45950;45.208;20.374;2023-07-02T02:18:58;10.40;;;6.20;;
60076;SDS011;45950;45.208;20.374;2023-07-02T02:24:28;8.32;;;5.90;;
60076;SDS011;45950;45.208;20.374;2023-07-02T02:26:56;8.70;;;6.20;;
60076;SDS011;45950;45.208;20.374;2023-07-02T02:29:23;11.60;;;8.43;;
60076;SDS011;45950;45.208;20.374;2023-07-02T02:31:49;12.35;;;7.38;;
60076;SDS011;45950;45.208;20.374;2023-07-02T02:34:16;8.77;;;6.20;;
60076;SDS011;45950;45.208;20.374;2023-07-02T02:36:42;10.98;;;6.82;;
60076;SDS011;45950;45.208;20.374;2023-07-02T02:39:09;12.48;;;9.18;;
60076;SDS011;45950;45.208;20.374;2023-07-02T02:41:36;12.10;;;9.25;;
60076;SDS011;45950;45.208;20.374;2023-07-02T02:44:04;10.52;;;7.05;;
60076;SDS011;45950;45.208;20.374;2023-07-02T02:46:30;9.73;;;6.95;;
60076;SDS011;45950;45.208;20.374;2023-07-02T02:48:57;7.60;;;5.85;;
60076;SDS011;45950;45.208;20.374;2023-07-02T02:51:24;10.95;;;6.90;;
60076;SDS011;45950;45.208;20.374;2023-07-02T02:53:50;11.50;;;6.78;;
60076;SDS011;45950;45.208;20.374;2023-07-02T02:56:18;9.63;;;7.05;;
60076;SDS011;45950;45.208;20.374;2023-07-02T02:58:44;9.85;;;6.90;;
60076;SDS011;45950;45.208;20.374;2023-07-02T03:01:12;10.02;;;6.75;;
60076;SDS011;45950;45.208;20.374;2023-07-02T03:06:42;9.05;;;6.00;;
60076;SDS011;45950;45.208;20.374;2023-07-02T03:09:09;16.40;;;6.28;;
60076;SDS011;45950;45.208;20.374;2023-07-02T03:11:35;9.38;;;5.97;;
60076;SDS011;45950;45.208;20.374;2023-07-02T03:17:06;8.23;;;6.35;;
60076;SDS011;45950;45.208;20.374;2023-07-02T03:19:33;10.07;;;6.03;;
60076;SDS011;45950;45.208;20.374;2023-07-02T03:25:02;9.73;;;5.85;;
60076;SDS011;45950;45.208;20.374;2023-07-02T03:27:29;10.65;;;6.22;;
60076;SDS011;45950;45.208;20.374;2023-07-02T03:29:55;9.32;;;5.80;;
60076;SDS011;45950;45.208;20.374;2023-07-02T03:32:25;8.38;;;6.28;;
60076;SDS011;45950;45.208;20.374;2023-07-02T03:34:51;10.75;;;7.15;;
60076;SDS011;45950;45.208;20.374;2023-07-02T03:37:18;12.00;;;6.80;;
60076;SDS011;45950;45.208;20.374;2023-07-02T03:39:44;11.02;;;6.70;;
60076;SDS011;45950;45.208;20.374;2023-07-02T03:42:11;9.00;;;6.35;;
60076;SDS011;45950;45.208;20.374;2023-07-02T03:44:38;9.85;;;6.90;;
60076;SDS011;45950;45.208;20.374;2023-07-02T03:47:05;10.60;;;7.80;;
60076;SDS011;45950;45.208;20.374;2023-07-02T03:49:34;12.35;;;7.88;;
60076;SDS011;45950;45.208;20.374;2023-07-02T03:52:16;13.18;;;8.07;;
60076;SDS011;45950;45.208;20.374;2023-07-02T03:54:43;12.52;;;9.15;;
60076;SDS011;45950;45.208;20.374;2023-07-02T03:57:09;11.93;;;8.85;;
60076;SDS011;45950;45.208;20.374;2023-07-02T04:02:21;13.63;;;8.75;;
60076;SDS011;45950;45.208;20.374;2023-07-02T04:04:49;15.10;;;10.05;;
60076;SDS011;45950;45.208;20.374;2023-07-02T04:07:16;15.88;;;9.90;;
60076;SDS011;45950;45.208;20.374;2023-07-02T04:09:42;14.82;;;10.38;;
60076;SDS011;45950;45.208;20.374;2023-07-02T04:12:09;13.82;;;10.77;;
60076;SDS011;45950;45.208;20.374;2023-07-02T04:14:47;11.63;;;8.93;;
60076;SDS011;45950;45.208;20.374;2023-07-02T04:17:13;16.30;;;11.15;;
60076;SDS011;45950;45.208;20.374;2023-07-02T04:19:40;13.20;;;10.95;;
60076;SDS011;45950;45.208;20.374;2023-07-02T04:25:11;18.63;;;11.77;;
60076;SDS011;45950;45.208;20.374;2023-07-02T04:27:40;12.73;;;9.35;;
60076;SDS011;45950;45.208;20.374;2023-07-02T04:30:07;15.95;;;11.38;;
60076;SDS011;45950;45.208;20.374;2023-07-02T04:32:35;15.88;;;11.52;;
60076;SDS011;45950;45.208;20.374;2023-07-02T04:35:01;13.45;;;9.88;;
60076;SDS011;45950;45.208;20.374;2023-07-02T04:37:28;13.75;;;11.68;;
60076;SDS011;45950;45.208;20.374;2023-07-02T04:39:55;14.95;;;10.52;;
60076;SDS011;45950;45.208;20.374;2023-07-02T04:42:23;13.15;;;8.68;;
60076;SDS011;45950;45.208;20.374;2023-07-02T04:44:52;11.88;;;8.65;;
60076;SDS011;45950;45.208;20.374;2023-07-02T04:47:19;14.50;;;10.13;;
60076;SDS011;45950;45.208;20.374;2023-07-02T04:49:45;15.85;;;11.48;;
60076;SDS011;45950;45.208;20.374;2023-07-02T04:52:12;13.98;;;11.30;;
60076;SDS011;45950;45.208;20.374;2023-07-02T04:54:39;13.20;;;11.55;;
60076;SDS011;45950;45.208;20.374;2023-07-02T04:57:06;13.88;;;10.77;;
60076;SDS011;45950;45.208;20.374;2023-07-02T04:59:34;13.63;;;11.57;;
60076;SDS011;45950;45.208;20.374;2023-07-02T05:02:01;12.80;;;8.52;;
60076;SDS011;45950;45.208;20.374;2023-07-02T05:04:28;12.45;;;8.52;;
60076;SDS011;45950;45.208;20.374;2023-07-02T05:06:54;13.00;;;10.15;;
60076;SDS011;45950;45.208;20.374;2023-07-02T05:09:21;13.05;;;8.63;;
60076;SDS011;45950;45.208;20.374;2023-07-02T05:11:47;11.55;;;9.65;;
60076;SDS011;45950;45.208;20.374;2023-07-02T05:14:14;13.85;;;11.70;;
60076;SDS011;45950;45.208;20.374;2023-07-02T05:16:42;15.55;;;11.43;;
60076;SDS011;45950;45.208;20.374;2023-07-02T05:19:08;13.98;;;11.10;;
60076;SDS011;45950;45.208;20.374;2023-07-02T05:21:35;13.40;;;9.55;;
60076;SDS011;45950;45.208;20.374;2023-07-02T05:24:02;13.10;;;10.98;;
60076;SDS011;45950;45.208;20.374;2023-07-02T05:26:28;12.93;;;10.43;;
60076;SDS011;45950;45.208;20.374;2023-07-02T05:28:55;12.02;;;9.75;;
60076;SDS011;45950;45.208;20.374;2023-07-02T05:31:21;12.07;;;9.90;;
60076;SDS011;45950;45.208;20.374;2023-07-02T05:33:49;11.02;;;7.88;;
60076;SDS011;45950;45.208;20.374;2023-07-02T05:36:16;9.95;;;8.45;;
60076;SDS011;45950;45.208;20.374;2023-07-02T05:38:43;13.48;;;9.95;;
60076;SDS011;45950;45.208;20.374;2023-07-02T05:41:09;11.68;;;9.55;;
60076;SDS011;45950;45.208;20.374;2023-07-02T05:43:36;10.88;;;8.95;;
60076;SDS011;45950;45.208;20.374;2023-07-02T05:46:17;11.57;;;9.13;;
60076;SDS011;45950;45.208;20.374;2023-07-02T05:48:43;10.20;;;8.23;;
60076;SDS011;45950;45.208;20.374;2023-07-02T05:51:11;12.10;;;9.90;;
60076;SDS011;45950;45.208;20.374;2023-07-02T05:53:51;10.73;;;9.57;;
60076;SDS011;45950;45.208;20.374;2023-07-02T05:56:18;9.65;;;7.93;;
60076;SDS011;45950;45.208;20.374;2023-07-02T05:58:45;10.80;;;8.48;;
60076;SDS011;45950;45.208;20.374;2023-07-02T06:01:17;10.43;;;8.90;;
60076;SDS011;45950;45.208;20.374;2023-07-02T06:03:43;11.45;;;8.50;;
60076;SDS011;45950;45.208;20.374;2023-07-02T06:06:12;8.60;;;7.65;;
60076;SDS011;45950;45.208;20.374;2023-07-02T06:08:38;9.35;;;7.40;;
60076;SDS011;45950;45.208;20.374;2023-07-02T06:11:05;10.07;;;7.72;;
60076;SDS011;45950;45.208;20.374;2023-07-02T06:13:48;9.75;;;7.88;;
60076;SDS011;45950;45.208;20.374;2023-07-02T06:16:14;8.38;;;6.60;;
60076;SDS011;45950;45.208;20.374;2023-07-02T06:18:41;8.30;;;6.93;;
60076;SDS011;45950;45.208;20.374;2023-07-02T06:21:07;8.68;;;6.82;;
60076;SDS011;45950;45.208;20.374;2023-07-02T06:23:42;8.43;;;6.55;;
60076;SDS011;45950;45.208;20.374;2023-07-02T06:26:09;8.27;;;6.78;;
60076;SDS011;45950;45.208;20.374;2023-07-02T06:28:35;10.50;;;7.30;;
60076;SDS011;45950;45.208;20.374;2023-07-02T06:31:02;9.10;;;7.13;;
60076;SDS011;45950;45.208;20.374;2023-07-02T06:33:29;8.77;;;7.20;;
60076;SDS011;45950;45.208;20.374;2023-07-02T06:38:59;9.60;;;6.93;;
60076;SDS011;45950;45.208;20.374;2023-07-02T06:41:26;8.45;;;7.05;;
60076;SDS011;45950;45.208;20.374;2023-07-02T06:43:52;7.60;;;6.43;;
60076;SDS011;45950;45.208;20.374;2023-07-02T06:46:19;8.32;;;6.05;;
60076;SDS011;45950;45.208;20.374;2023-07-02T06:48:46;8.73;;;7.15;;
60076;SDS011;45950;45.208;20.374;2023-07-02T06:51:16;9.05;;;7.25;;
60076;SDS011;45950;45.208;20.374;2023-07-02T06:53:44;9.77;;;7.05;;
60076;SDS011;45950;45.208;20.374;2023-07-02T06:56:12;8.55;;;7.40;;
60076;SDS011;45950;45.208;20.374;2023-07-02T06:58:39;11.45;;;6.88;;
60076;SDS011;45950;45.208;20.374;2023-07-02T07:01:06;8.15;;;5.85;;
60076;SDS011;45950;45.208;20.374;2023-07-02T07:03:34;11.77;;;7.13;;
60076;SDS011;45950;45.208;20.374;2023-07-02T07:06:00;7.28;;;6.22;;
60076;SDS011;45950;45.208;20.374;2023-07-02T07:08:27;8.20;;;6.40;;
60076;SDS011;45950;45.208;20.374;2023-07-02T07:10:54;7.50;;;6.47;;
60076;SDS011;45950;45.208;20.374;2023-07-02T07:13:22;7.53;;;6.18;;
60076;SDS011;45950;45.208;20.374;2023-07-02T07:15:48;9.82;;;5.38;;
60076;SDS011;45950;45.208;20.374;2023-07-02T07:18:15;7.63;;;4.78;;
60076;SDS011;45950;45.208;20.374;2023-07-02T07:20:43;7.47;;;5.10;;
60076;SDS011;45950;45.208;20.374;2023-07-02T07:23:10;5.60;;;4.55;;
60076;SDS011;45950;45.208;20.374;2023-07-02T07:25:36;6.50;;;5.30;;
60076;SDS011;45950;45.208;20.374;2023-07-02T07:28:03;6.55;;;5.05;;
60076;SDS011;45950;45.208;20.374;2023-07-02T07:30:31;5.90;;;4.68;;
60076;SDS011;45950;45.208;20.374;2023-07-02T07:32:58;6.18;;;4.63;;
60076;SDS011;45950;45.208;20.374;2023-07-02T07:35:24;6.07;;;5.07;;
60076;SDS011;45950;45.208;20.374;2023-07-02T07:37:51;5.55;;;3.80;;
60076;SDS011;45950;45.208;20.374;2023-07-02T07:40:17;5.15;;;4.57;;
60076;SDS011;45950;45.208;20.374;2023-07-02T07:42:44;6.60;;;5.07;;
60076;SDS011;45950;45.208;20.374;2023-07-02T07:45:11;5.90;;;4.38;;
60076;SDS011;45950;45.208;20.374;2023-07-02T07:47:39;8.13;;;5.80;;
60076;SDS011;45950;45.208;20.374;2023-07-02T07:50:06;6.82;;;5.25;;
60076;SDS011;45950;45.208;20.374;2023-07-02T07:52:35;8.70;;;5.65;;
60076;SDS011;45950;45.208;20.374;2023-07-02T07:55:02;6.93;;;5.57;;
60076;SDS011;45950;45.208;20.374;2023-07-02T07:57:29;7.25;;;5.53;;
60076;SDS011;45950;45.208;20.374;2023-07-02T07:59:55;7.15;;;4.88;;
60076;SDS011;45950;45.208;20.374;2023-07-02T08:02:22;8.45;;;5.50;;
60076;SDS011;45950;45.208;20.374;2023-07-02T08:04:50;9.43;;;5.32;;
60076;SDS011;45950;45.208;20.374;2023-07-02T08:07:17;7.93;;;4.97;;
60076;SDS011;45950;45.208;20.374;2023-07-02T08:09:43;7.82;;;5.93;;
60076;SDS011;45950;45.208;20.374;2023-07-02T08:12:10;6.65;;;5.03;;
60076;SDS011;45950;45.208;20.374;2023-07-02T08:14:36;8.60;;;5.45;;
60076;SDS011;45950;45.208;20.374;2023-07-02T08:17:03;9.70;;;6.35;;
60076;SDS011;45950;45.208;20.374;2023-07-02T08:19:30;7.18;;;5.10;;
60076;SDS011;45950;45.208;20.374;2023-07-02T08:21:58;6.85;;;4.50;;
60076;SDS011;45950;45.208;20.374;2023-07-02T08:24:25;11.18;;;5.22;;
60076;SDS011;45950;45.208;20.374;2023-07-02T08:26:51;6.82;;;4.63;;
60076;SDS011;45950;45.208;20.374;2023-07-02T08:29:18;6.82;;;5.25;;
60076;SDS011;45950;45.208;20.374;2023-07-02T08:31:44;6.90;;;5.32;;
60076;SDS011;45950;45.208;20.374;2023-07-02T08:34:11;10.07;;;6.40;;
60076;SDS011;45950;45.208;20.374;2023-07-02T08:36:47;9.57;;;5.43;;
60076;SDS011;45950;45.208;20.374;2023-07-02T08:39:15;8.57;;;5.45;;
60076;SDS011;45950;45.208;20.374;2023-07-02T08:41:42;7.32;;;5.82;;
60076;SDS011;45950;45.208;20.374;2023-07-02T08:44:09;9.15;;;6.15;;
60076;SDS011;45950;45.208;20.374;2023-07-02T08:46:50;8.27;;;6.68;;
60076;SDS011;45950;45.208;20.374;2023-07-02T08:49:18;8.20;;;6.70;;
60076;SDS011;45950;45.208;20.374;2023-07-02T08:51:45;7.80;;;5.60;;
60076;SDS011;45950;45.208;20.374;2023-07-02T08:54:11;7.32;;;6.38;;
60076;SDS011;45950;45.208;20.374;2023-07-02T08:56:40;8.32;;;6.68;;
60076;SDS011;45950;45.208;20.374;2023-07-02T08:59:07;8.57;;;5.70;;
60076;SDS011;45950;45.208;20.374;2023-07-02T09:01:44;7.30;;;5.32;;
60076;SDS011;45950;45.208;20.374;2023-07-02T09:04:14;7.53;;;5.95;;
60076;SDS011;45950;45.208;20.374;2023-07-02T09:06:51;7.75;;;5.47;;
60076;SDS011;45950;45.208;20.374;2023-07-02T09:09:18;9.23;;;5.93;;
60076;SDS011;45950;45.208;20.374;2023-07-02T09:11:49;6.28;;;5.18;;
60076;SDS011;45950;45.208;20.374;2023-07-02T09:14:30;7.22;;;5.72;;
60076;SDS011;45950;45.208;20.374;2023-07-02T09:17:01;8.05;;;6.22;;
60076;SDS011;45950;45.208;20.374;2023-07-02T09:19:27;8.05;;;5.05;;
60076;SDS011;45950;45.208;20.374;2023-07-02T09:21:56;8.20;;;6.75;;
60076;SDS011;45950;45.208;20.374;2023-07-02T09:24:24;8.55;;;5.97;;
60076;SDS011;45950;45.208;20.374;2023-07-02T09:26:53;10.68;;;6.45;;
60076;SDS011;45950;45.208;20.374;2023-07-02T09:29:21;8.27;;;6.25;;
60076;SDS011;45950;45.208;20.374;2023-07-02T09:31:48;9.70;;;6.70;;
60076;SDS011;45950;45.208;20.374;2023-07-02T09:34:15;8.10;;;6.00;;
60076;SDS011;45950;45.208;20.374;2023-07-02T09:36:42;8.98;;;6.65;;
60076;SDS011;45950;45.208;20.374;2023-07-02T09:39:13;7.72;;;6.18;;
60076;SDS011;45950;45.208;20.374;2023-07-02T09:41:39;10.88;;;6.60;;
60076;SDS011;45950;45.208;20.374;2023-07-02T09:46:55;7.82;;;6.70;;
60076;SDS011;45950;45.208;20.374;2023-07-02T09:49:23;8.85;;;6.43;;
60076;SDS011;45950;45.208;20.374;2023-07-02T09:51:51;8.50;;;6.75;;
60076;SDS011;45950;45.208;20.374;2023-07-02T09:54:18;7.72;;;6.75;;
60076;SDS011;45950;45.208;20.374;2023-07-02T09:56:45;8.98;;;7.60;;
60076;SDS011;45950;45.208;20.374;2023-07-02T09:59:13;11.27;;;7.55;;
60076;SDS011;45950;45.208;20.374;2023-07-02T10:01:40;8.27;;;6.78;;
60076;SDS011;45950;45.208;20.374;2023-07-02T10:04:11;8.18;;;6.72;;
60076;SDS011;45950;45.208;20.374;2023-07-02T10:06:44;10.65;;;7.13;;
60076;SDS011;45950;45.208;20.374;2023-07-02T10:09:11;33.13;;;8.40;;
60076;SDS011;45950;45.208;20.374;2023-07-02T10:11:38;8.88;;;7.40;;
60076;SDS011;45950;45.208;20.374;2023-07-02T10:14:04;11.02;;;5.82;;
60076;SDS011;45950;45.208;20.374;2023-07-02T10:16:31;7.53;;;5.95;;
60076;SDS011;45950;45.208;20.374;2023-07-02T10:19:07;7.88;;;5.60;;
60076;SDS011;45950;45.208;20.374;2023-07-02T10:21:35;8.10;;;6.53;;
60076;SDS011;45950;45.208;20.374;2023-07-02T10:24:10;8.48;;;6.95;;
60076;SDS011;45950;45.208;20.374;2023-07-02T10:26:37;9.85;;;6.35;;
60076;SDS011;45950;45.208;20.374;2023-07-02T10:29:04;8.77;;;6.43;;
60076;SDS011;45950;45.208;20.374;2023-07-02T10:31:32;8.38;;;6.30;;
60076;SDS011;45950;45.208;20.374;2023-07-02T10:34:02;7.78;;;6.47;;
60076;SDS011;45950;45.208;20.374;2023-07-02T10:36:28;8.73;;;5.68;;
60076;SDS011;45950;45.208;20.374;2023-07-02T10:39:00;6.88;;;5.75;;
60076;SDS011;45950;45.208;20.374;2023-07-02T10:44:14;8.50;;;6.55;;
60076;SDS011;45950;45.208;20.374;2023-07-02T10:46:45;7.95;;;6.93;;
60076;SDS011;45950;45.208;20.374;2023-07-02T10:49:14;8.65;;;6.60;;
60076;SDS011;45950;45.208;20.374;2023-07-02T10:51:41;11.68;;;9.60;;
60076;SDS011;45950;45.208;20.374;2023-07-02T10:54:09;16.25;;;11.65;;
60076;SDS011;45950;45.208;20.374;2023-07-02T10:59:24;10.85;;;7.57;;
60076;SDS011;45950;45.208;20.374;2023-07-02T11:01:51;7.88;;;6.60;;
60076;SDS011;45950;45.208;20.374;2023-07-02T11:04:18;10.95;;;7.70;;
60076;SDS011;45950;45.208;20.374;2023-07-02T11:06:45;9.43;;;6.65;;
60076;SDS011;45950;45.208;20.374;2023-07-02T11:09:18;9.32;;;7.03;;
60076;SDS011;45950;45.208;20.374;2023-07-02T11:11:50;12.95;;;7.75;;
60076;SDS011;45950;45.208;20.374;2023-07-02T11:14:25;10.07;;;6.15;;
60076;SDS011;45950;45.208;20.374;2023-07-02T11:16:54;9.68;;;7.10;;
60076;SDS011;45950;45.208;20.374;2023-07-02T11:19:20;8.93;;;6.13;;
60076;SDS011;45950;45.208;20.374;2023-07-02T11:21:51;7.50;;;5.30;;
60076;SDS011;45950;45.208;20.374;2023-07-02T11:24:26;7.82;;;6.07;;
60076;SDS011;45950;45.208;20.374;2023-07-02T11:26:52;10.65;;;7.50;;
60076;SDS011;45950;45.208;20.374;2023-07-02T11:29:19;7.18;;;6.47;;
60076;SDS011;45950;45.208;20.374;2023-07-02T11:31:46;9.80;;;6.95;;
60076;SDS011;45950;45.208;20.374;2023-07-02T11:34:12;9.80;;;6.65;;
60076;SDS011;45950;45.208;20.374;2023-07-02T11:36:39;7.43;;;5.95;;
60076;SDS011;45950;45.208;20.374;2023-07-02T11:39:05;8.57;;;5.57;;
60076;SDS011;45950;45.208;20.374;2023-07-02T11:44:38;7.10;;;5.82;;
60076;SDS011;45950;45.208;20.374;2023-07-02T11:47:04;6.63;;;5.40;;
60076;SDS011;45950;45.208;20.374;2023-07-02T11:49:31;9.07;;;6.43;;
60076;SDS011;45950;45.208;20.374;2023-07-02T11:51:59;8.05;;;6.57;;
60076;SDS011;45950;45.208;20.374;2023-07-02T11:54:25;8.63;;;7.00;;
60076;SDS011;45950;45.208;20.374;2023-07-02T11:56:52;9.15;;;6.85;;
60076;SDS011;45950;45.208;20.374;2023-07-02T11:59:19;8.40;;;6.35;;
60076;SDS011;45950;45.208;20.374;2023-07-02T12:01:47;8.50;;;6.60;;
60076;SDS011;45950;45.208;20.374;2023-07-02T12:04:13;9.50;;;7.20;;
60076;SDS011;45950;45.208;20.374;2023-07-02T12:06:40;8.63;;;7.00;;
60076;SDS011;45950;45.208;20.374;2023-07-02T12:09:07;8.80;;;6.75;;
60076;SDS011;45950;45.208;20.374;2023-07-02T12:11:34;9.65;;;7.68;;
60076;SDS011;45950;45.208;20.374;2023-07-02T12:14:13;8.43;;;6.07;;
60076;SDS011;45950;45.208;20.374;2023-07-02T12:16:40;11.38;;;8.20;;
60076;SDS011;45950;45.208;20.374;2023-07-02T12:19:08;10.43;;;7.68;;
60076;SDS011;45950;45.208;20.374;2023-07-02T12:21:36;11.32;;;8.60;;
60076;SDS011;45950;45.208;20.374;2023-07-02T12:24:03;8.88;;;7.43;;
60076;SDS011;45950;45.208;20.374;2023-07-02T12:26:33;7.82;;;6.78;;
60076;SDS011;45950;45.208;20.374;2023-07-02T12:29:00;10.65;;;7.80;;
60076;SDS011;45950;45.208;20.374;2023-07-02T12:31:27;9.38;;;7.35;;
60076;SDS011;45950;45.208;20.374;2023-07-02T12:33:58;9.68;;;7.90;;
60076;SDS011;45950;45.208;20.374;2023-07-02T12:36:26;11.02;;;7.50;;
60076;SDS011;45950;45.208;20.374;2023-07-02T12:38:53;9.38;;;7.93;;
60076;SDS011;45950;45.208;20.374;2023-07-02T12:44:15;10.77;;;7.47;;
60076;SDS011;45950;45.208;20.374;2023-07-02T12:46:42;9.98;;;7.40;;
60076;SDS011;45950;45.208;20.374;2023-07-02T12:52:11;10.07;;;6.90;;
60076;SDS011;45950;45.208;20.374;2023-07-02T12:54:38;9.85;;;7.70;;
60076;SDS011;45950;45.208;20.374;2023-07-02T12:57:05;8.57;;;7.32;;
60076;SDS011;45950;45.208;20.374;2023-07-02T12:59:31;9.52;;;7.63;;
60076;SDS011;45950;45.208;20.374;2023-07-02T13:01:58;10.23;;;7.80;;
60076;SDS011;45950;45.208;20.374;2023-07-02T13:04:25;9.57;;;7.47;;
60076;SDS011;45950;45.208;20.374;2023-07-02T13:06:51;9.98;;;7.75;;
60076;SDS011;45950;45.208;20.374;2023-07-02T13:09:19;9.88;;;8.38;;
60076;SDS011;45950;45.208;20.374;2023-07-02T13:11:46;9.30;;;7.18;;
60076;SDS011;45950;45.208;20.374;2023-07-02T13:14:12;12.63;;;8.23;;
60076;SDS011;45950;45.208;20.374;2023-07-02T13:16:39;9.65;;;7.50;;
60076;SDS011;45950;45.208;20.374;2023-07-02T13:19:08;9.80;;;7.70;;
60076;SDS011;45950;45.208;20.374;2023-07-02T13:21:35;10.52;;;7.95;;
60076;SDS011;45950;45.208;20.374;2023-07-02T13:24:01;10.48;;;8.32;;
60076;SDS011;45950;45.208;20.374;2023-07-02T13:26:29;9.45;;;7.68;;
60076;SDS011;45950;45.208;20.374;2023-07-02T13:28:56;10.55;;;7.88;;
60076;SDS011;45950;45.208;20.374;2023-07-02T13:31:22;11.13;;;7.35;;
60076;SDS011;45950;45.208;20.374;2023-07-02T13:36:40;10.80;;;8.02;;
60076;SDS011;45950;45.208;20.374;2023-07-02T13:39:07;10.48;;;7.90;;
60076;SDS011;45950;45.208;20.374;2023-07-02T13:44:23;8.57;;;6.72;;
60076;SDS011;45950;45.208;20.374;2023-07-02T13:46:50;8.10;;;5.95;;
60076;SDS011;45950;45.208;20.374;2023-07-02T13:49:30;9.45;;;6.82;;
60076;SDS011;45950;45.208;20.374;2023-07-02T13:51:56;8.88;;;6.43;;
60076;SDS011;45950;45.208;20.374;2023-07-02T13:54:23;7.85;;;5.93;;
60076;SDS011;45950;45.208;20.374;2023-07-02T13:56:50;8.18;;;7.00;;
60076;SDS011;45950;45.208;20.374;2023-07-02T13:59:31;7.40;;;6.10;;
60076;SDS011;45950;45.208;20.374;2023-07-02T14:01:58;9.90;;;6.80;;
60076;SDS011;45950;45.208;20.374;2023-07-02T14:04:24;6.15;;;4.88;;
60076;SDS011;45950;45.208;20.374;2023-07-02T14:06:51;7.35;;;5.43;;
60076;SDS011;45950;45.208;20.374;2023-07-02T14:09:19;7.93;;;6.05;;
60076;SDS011;45950;45.208;20.374;2023-07-02T14:11:47;9.10;;;5.93;;
60076;SDS011;45950;45.208;20.374;2023-07-02T14:17:09;8.07;;;5.90;;
60076;SDS011;45950;45.208;20.374;2023-07-02T14:19:35;8.38;;;6.10;;
60076;SDS011;45950;45.208;20.374;2023-07-02T14:24:54;8.68;;;5.93;;
60076;SDS011;45950;45.208;20.374;2023-07-02T14:27:21;7.90;;;5.70;;
60076;SDS011;45950;45.208;20.374;2023-07-02T14:32:41;8.63;;;6.10;;
60076;SDS011;45950;45.208;20.374;2023-07-02T14:35:09;7.10;;;5.40;;
60076;SDS011;45950;45.208;20.374;2023-07-02T14:37:35;6.82;;;5.45;;
60076;SDS011;45950;45.208;20.374;2023-07-02T14:40:02;6.63;;;5.70;;
60076;SDS011;45950;45.208;20.374;2023-07-02T14:42:29;9.40;;;5.72;;
60076;SDS011;45950;45.208;20.374;2023-07-02T14:44:56;10.52;;;5.65;;
60076;SDS011;45950;45.208;20.374;2023-07-02T14:47:22;7.25;;;5.65;;
60076;SDS011;45950;45.208;20.374;2023-07-02T14:49:50;8.57;;;5.82;;
60076;SDS011;45950;45.208;20.374;2023-07-02T14:52:17;7.88;;;5.68;;
60076;SDS011;45950;45.208;20.374;2023-07-02T14:54:44;6.55;;;5.40;;
60076;SDS011;45950;45.208;20.374;2023-07-02T14:57:11;7.70;;;5.82;;
60076;SDS011;45950;45.208;20.374;2023-07-02T14:59:37;7.75;;;4.72;;
60076;SDS011;45950;45.208;20.374;2023-07-02T15:02:11;5.97;;;5.13;;
60076;SDS011;45950;45.208;20.374;2023-07-02T15:04:39;7.50;;;5.35;;
60076;SDS011;45950;45.208;20.374;2023-07-02T15:07:07;8.38;;;5.28;;
60076;SDS011;45950;45.208;20.374;2023-07-02T15:09:33;8.13;;;4.53;;
60076;SDS011;45950;45.208;20.374;2023-07-02T15:12:00;7.22;;;4.97;;
60076;SDS011;45950;45.208;20.374;2023-07-02T15:14:26;6.35;;;4.68;;
60076;SDS011;45950;45.208;20.374;2023-07-02T15:16:53;6.57;;;5.22;;
60076;SDS011;45950;45.208;20.374;2023-07-02T15:19:20;5.93;;;4.85;;
60076;SDS011;45950;45.208;20.374;2023-07-02T15:21:55;7.15;;;4.60;;
60076;SDS011;45950;45.208;20.374;2023-07-02T15:24:23;7.32;;;5.05;;
60076;SDS011;45950;45.208;20.374;2023-07-02T15:26:50;5.38;;;4.55;;
60076;SDS011;45950;45.208;20.374;2023-07-02T15:29:16;6.55;;;4.85;;